Time;durP1;ratioP1;P1;durP2;ratioP2;P2;SDS_P1;SDS_P2;PMS_P1;PMS_P2;Temp;Humidity;BMP_temperature;BMP_pressure;BME280_temperature;BME280_humidity;BME280_pressure;Samples;Min_cycle;Max_cycle;Signal;HPM_P1;HPM_P2
2022/04/12 00:00:42;;;;;;;;;;;7.60;83.60;;;;;;5093130;28;19953;-89
2022/04/12 00:03:09;;;;;;;;;;;7.60;83.50;;;;;;5093004;28;19908;-89
2022/04/12 00:05:35;;;;;;;;;;;7.70;83.30;;;;;;5093079;28;19908;-90
2022/04/12 00:08:01;;;;;;;;;;;7.70;82.70;;;;;;5092934;28;19908;-90
2022/04/12 00:10:27;;;;;;;;;;;7.60;82.20;;;;;;5092953;28;19914;-89
2022/04/12 00:12:53;;;;;;;;;;;7.60;81.80;;;;;;5092946;28;19944;-89
2022/04/12 00:15:19;;;;;;;;;;;7.60;81.70;;;;;;5094221;28;19954;-89
2022/04/12 00:20:29;;;;;;;;;;;7.60;81.70;;;;;;5093008;28;19919;-89
2022/04/12 00:22:55;;;;;;;;;;;7.60;82.30;;;;;;5096693;28;19999;-89
2022/04/12 00:25:22;;;;;;;;;;;7.50;83.20;;;;;;5096581;28;19933;-89
2022/04/12 00:27:49;;;;;;;;;;;7.50;83.80;;;;;;5096465;28;19919;-90
2022/04/12 00:30:14;;;;;;;;;;;7.50;83.80;;;;;;5096483;28;19920;-89
2022/04/12 00:32:40;;;;;;;;;;;7.70;83.10;;;;;;5096374;28;19908;-89
2022/04/12 00:35:06;;;;;;;;;;;7.80;82.70;;;;;;5096470;28;19911;-89
2022/04/12 00:37:31;;;;;;;;;;;7.70;81.60;;;;;;5096341;28;19908;-89
2022/04/12 00:39:57;;;;;;;;;;;7.60;80.80;;;;;;5096346;28;20286;-89
2022/04/12 00:42:23;;;;;;;;;;;7.40;80.40;;;;;;5096356;28;19912;-89
2022/04/12 00:44:48;;;;;;;;;;;7.40;79.80;;;;;;5096233;28;19916;-89
2022/04/12 00:47:14;;;;;;;;;;;7.40;80.60;;;;;;5096197;28;19909;-89
2022/04/12 00:49:40;;;;;;;;;;;7.40;81.10;;;;;;5083787;28;19912;-89
2022/04/12 00:52:09;;;;;;;;;;;7.40;81.50;;;;;;5075849;28;19913;-89
2022/04/12 00:54:35;;;;;;;;;;;7.40;81.70;;;;;;5075756;28;20026;-89
2022/04/12 00:57:01;;;;;;;;;;;7.30;82.00;;;;;;5075667;28;19909;-90
2022/04/12 00:59:27;;;;;;;;;;;7.20;82.60;;;;;;5075720;28;19924;-90
2022/04/12 01:01:52;;;;;;;;;;;7.20;82.20;;;;;;5075934;28;19913;-88
2022/04/12 01:04:19;;;;;;;;;;;7.10;81.70;;;;;;5075674;28;20404;-89
2022/04/12 01:06:46;;;;;;;;;;;7.20;81.20;;;;;;5075595;28;19908;-89
2022/04/12 01:09:12;;;;;;;;;;;7.10;80.80;;;;;;5075439;28;19912;-89
2022/04/12 01:11:39;;;;;;;;;;;6.90;81.10;;;;;;5074250;28;20336;-89
2022/04/12 01:14:05;;;;;;;;;;;6.90;82.00;;;;;;5075435;28;20259;-89
2022/04/12 01:16:31;;;;;;;;;;;6.90;83.20;;;;;;5074207;28;19908;-89
2022/04/12 01:18:57;;;;;;;;;;;7.10;83.40;;;;;;5075635;28;20300;-89
2022/04/12 01:21:22;;;;;;;;;;;7.10;83.20;;;;;;5075282;28;19915;-89
2022/04/12 01:24:04;;;;;;;;;;;7.00;83.40;;;;;;5075614;28;19909;-89
2022/04/12 01:26:30;;;;;;;;;;;7.10;83.50;;;;;;5075088;28;19909;-89
2022/04/12 01:28:56;;;;;;;;;;;7.00;83.80;;;;;;5074996;28;19935;-89
2022/04/12 01:31:23;;;;;;;;;;;7.00;84.20;;;;;;5075009;28;20328;-89
2022/04/12 01:33:49;;;;;;;;;;;7.00;84.40;;;;;;5075044;28;20094;-89
2022/04/12 01:36:14;;;;;;;;;;;6.90;84.60;;;;;;5075104;28;20143;-89
2022/04/12 01:38:40;;;;;;;;;;;6.90;84.80;;;;;;5074961;28;20255;-89
2022/04/12 01:41:05;;;;;;;;;;;6.90;84.70;;;;;;5074949;28;19931;-90
2022/04/12 01:43:31;;;;;;;;;;;6.70;84.10;;;;;;5074904;28;19908;-89
2022/04/12 01:45:56;;;;;;;;;;;6.60;84.00;;;;;;5074857;28;20003;-89
2022/04/12 01:48:22;;;;;;;;;;;6.50;83.80;;;;;;5075154;28;19913;-89
2022/04/12 01:50:48;;;;;;;;;;;6.60;84.40;;;;;;5094725;28;19912;-89
2022/04/12 01:53:14;;;;;;;;;;;6.70;84.30;;;;;;5095345;28;19908;-89
2022/04/12 01:55:39;;;;;;;;;;;6.70;85.00;;;;;;5094864;28;19908;-89
2022/04/12 01:58:05;;;;;;;;;;;6.70;85.50;;;;;;5094839;28;20270;-89
2022/04/12 02:00:31;;;;;;;;;;;6.70;85.80;;;;;;5094816;28;19911;-89
2022/04/12 02:02:56;;;;;;;;;;;6.70;85.80;;;;;;5093029;28;20332;-89
2022/04/12 02:05:22;;;;;;;;;;;6.70;85.90;;;;;;5074463;28;19954;-89
2022/04/12 02:07:48;;;;;;;;;;;6.70;85.90;;;;;;5074671;28;19908;-89
2022/04/12 02:10:13;;;;;;;;;;;6.70;85.60;;;;;;5074164;28;19935;-89
2022/04/12 02:12:39;;;;;;;;;;;6.70;85.20;;;;;;5074301;28;19958;-89
2022/04/12 02:15:05;;;;;;;;;;;6.70;84.80;;;;;;5074254;28;19915;-89
2022/04/12 02:17:30;;;;;;;;;;;6.60;84.50;;;;;;5074114;28;19909;-89
2022/04/12 02:19:56;;;;;;;;;;;6.60;84.50;;;;;;5088091;28;19912;-89
2022/04/12 02:22:21;;;;;;;;;;;6.50;84.30;;;;;;5094334;28;19915;-89
2022/04/12 02:24:47;;;;;;;;;;;6.50;84.30;;;;;;5094351;28;19919;-89
2022/04/12 02:27:12;;;;;;;;;;;6.50;84.70;;;;;;5094277;28;19908;-90
2022/04/12 02:29:38;;;;;;;;;;;6.60;84.30;;;;;;5094030;28;20050;-89
2022/04/12 02:32:04;;;;;;;;;;;6.50;84.50;;;;;;5093862;28;19997;-89
2022/04/12 02:34:29;;;;;;;;;;;6.60;85.40;;;;;;5094139;28;19991;-90
2022/04/12 02:36:55;;;;;;;;;;;6.70;85.20;;;;;;5094093;28;20243;-89
2022/04/12 02:39:21;;;;;;;;;;;6.70;84.90;;;;;;5093857;28;19915;-89
2022/04/12 02:41:46;;;;;;;;;;;6.70;85.00;;;;;;5094031;28;20419;-89
2022/04/12 02:44:12;;;;;;;;;;;6.60;85.20;;;;;;5093953;28;20003;-89
2022/04/12 02:46:37;;;;;;;;;;;6.50;85.50;;;;;;5094034;28;19916;-89
2022/04/12 02:49:03;;;;;;;;;;;6.50;85.80;;;;;;5087578;28;20328;-90
2022/04/12 02:51:28;;;;;;;;;;;6.60;85.80;;;;;;5073614;28;19916;-89
2022/04/12 02:53:54;;;;;;;;;;;6.50;86.00;;;;;;5073626;28;20013;-89
2022/04/12 02:56:19;;;;;;;;;;;6.60;86.50;;;;;;5073528;28;19962;-89
2022/04/12 02:58:45;;;;;;;;;;;6.50;86.60;;;;;;5073619;28;19914;-89
2022/04/12 03:01:10;;;;;;;;;;;6.60;86.70;;;;;;5073469;28;19953;-89
2022/04/12 03:03:36;;;;;;;;;;;6.50;87.00;;;;;;5073543;28;20024;-89
2022/04/12 03:06:01;;;;;;;;;;;6.60;87.10;;;;;;5073556;28;20274;-89
2022/04/12 03:08:27;;;;;;;;;;;6.60;86.40;;;;;;5073248;28;20309;-89
2022/04/12 03:10:53;;;;;;;;;;;6.50;85.80;;;;;;5073359;28;20057;-89
2022/04/12 03:13:18;;;;;;;;;;;6.50;85.90;;;;;;5073611;28;19909;-89
2022/04/12 03:15:44;;;;;;;;;;;6.60;85.30;;;;;;5073370;28;19970;-89
2022/04/12 03:18:10;;;;;;;;;;;6.60;85.00;;;;;;5073920;28;19908;-89
2022/04/12 03:20:36;;;;;;;;;;;6.60;85.20;;;;;;5093228;28;20003;-88
2022/04/12 03:23:01;;;;;;;;;;;6.50;85.60;;;;;;5093214;28;19959;-88
2022/04/12 03:25:27;;;;;;;;;;;6.40;85.70;;;;;;5093553;28;20273;-89
2022/04/12 03:27:52;;;;;;;;;;;6.20;87.20;;;;;;5101183;22;19908;-89
2022/04/12 03:30:18;;;;;;;;;;;6.20;88.00;;;;;;5092612;28;20285;-89
2022/04/12 03:32:43;;;;;;;;;;;6.20;88.20;;;;;;5093375;28;19961;-89
2022/04/12 03:35:09;;;;;;;;;;;6.10;88.10;;;;;;5093296;28;19908;-89
2022/04/12 03:37:34;;;;;;;;;;;6.10;87.80;;;;;;5093309;28;20366;-89
2022/04/12 03:40:00;;;;;;;;;;;6.20;87.80;;;;;;5093300;28;20032;-89
2022/04/12 03:42:26;;;;;;;;;;;6.20;87.10;;;;;;5093616;28;19908;-89
2022/04/12 03:44:51;;;;;;;;;;;6.10;86.50;;;;;;5093260;28;20374;-89
2022/04/12 03:47:17;;;;;;;;;;;6.10;86.60;;;;;;5093215;28;19988;-89
2022/04/12 03:49:43;;;;;;;;;;;6.10;86.40;;;;;;5079267;28;19917;-89
2022/04/12 03:52:09;;;;;;;;;;;6.20;85.90;;;;;;5077073;28;19916;-89
2022/04/12 03:54:35;;;;;;;;;;;6.20;85.20;;;;;;5077238;28;19915;-89
2022/04/12 03:57:01;;;;;;;;;;;6.10;84.80;;;;;;5076989;28;20286;-89
2022/04/12 03:59:26;;;;;;;;;;;6.10;85.60;;;;;;5076962;28;19915;-90
2022/04/12 04:01:52;;;;;;;;;;;6.10;85.30;;;;;;5076831;28;19916;-89
2022/04/12 04:04:17;;;;;;;;;;;6.10;85.70;;;;;;5076789;28;19919;-89
2022/04/12 04:06:43;;;;;;;;;;;6.30;85.90;;;;;;5076747;28;19909;-89
2022/04/12 04:09:09;;;;;;;;;;;6.20;85.50;;;;;;5076604;28;19920;-89
2022/04/12 04:11:38;;;;;;;;;;;6.30;85.60;;;;;;5076554;28;19908;-89
2022/04/12 04:14:04;;;;;;;;;;;6.40;86.50;;;;;;5076611;28;19909;-90
2022/04/12 04:16:30;;;;;;;;;;;6.60;86.50;;;;;;5076499;28;19931;-89
2022/04/12 04:18:55;;;;;;;;;;;6.70;86.60;;;;;;5086139;28;19935;-88
2022/04/12 04:21:21;;;;;;;;;;;6.60;86.40;;;;;;5096688;28;19930;-89
2022/04/12 04:23:46;;;;;;;;;;;6.50;86.50;;;;;;5096674;28;20365;-89
2022/04/12 04:26:12;;;;;;;;;;;6.50;86.70;;;;;;5096672;28;19908;-89
2022/04/12 04:28:41;;;;;;;;;;;6.40;87.10;;;;;;5096420;28;19928;-89
2022/04/12 04:31:07;;;;;;;;;;;6.40;87.10;;;;;;5096388;28;20381;-89
2022/04/12 04:33:32;;;;;;;;;;;6.40;87.00;;;;;;5096171;28;19919;-89
2022/04/12 04:35:58;;;;;;;;;;;6.30;87.20;;;;;;5096435;28;20270;-88
2022/04/12 04:38:23;;;;;;;;;;;6.20;87.40;;;;;;5096386;28;19958;-88
2022/04/12 04:40:49;;;;;;;;;;;6.30;87.50;;;;;;5096257;28;19908;-88
2022/04/12 04:43:15;;;;;;;;;;;6.20;87.60;;;;;;5096229;28;20376;-88
2022/04/12 04:45:43;;;;;;;;;;;6.20;87.70;;;;;;5096268;28;20436;-89
2022/04/12 04:48:09;;;;;;;;;;;6.20;87.90;;;;;;5096146;28;19912;-88
2022/04/12 04:50:35;;;;;;;;;;;6.10;87.70;;;;;;5096658;28;19915;-88
2022/04/12 04:53:05;;;;;;;;;;;6.20;88.20;;;;;;5096073;28;19915;-88
2022/04/12 04:55:31;;;;;;;;;;;6.30;87.90;;;;;;5094560;28;20439;-88
2022/04/12 04:57:57;;;;;;;;;;;6.40;87.80;;;;;;5095464;28;19919;-88
2022/04/12 05:00:25;;;;;;;;;;;6.50;87.60;;;;;;5095266;28;19965;-88
2022/04/12 05:02:52;;;;;;;;;;;6.60;87.30;;;;;;5094884;28;19919;-88
2022/04/12 05:05:17;;;;;;;;;;;6.70;86.90;;;;;;5095382;28;20333;-88
2022/04/12 05:07:44;;;;;;;;;;;6.80;86.80;;;;;;5095737;28;19908;-87
2022/04/12 05:10:13;;;;;;;;;;;6.80;86.60;;;;;;5094828;28;20010;-87
2022/04/12 05:12:38;;;;;;;;;;;6.70;87.20;;;;;;5094210;28;19908;-88
2022/04/12 05:15:04;;;;;;;;;;;6.70;87.40;;;;;;5094833;28;20010;-87
2022/04/12 05:17:29;;;;;;;;;;;6.70;87.70;;;;;;5094975;28;19912;-88
2022/04/12 05:19:58;;;;;;;;;;;6.70;87.80;;;;;;5094532;28;19919;-87
2022/04/12 05:22:25;;;;;;;;;;;6.70;88.30;;;;;;5094773;28;19966;-88
2022/04/12 05:24:50;;;;;;;;;;;6.80;88.30;;;;;;5092924;28;20061;-87
2022/04/12 05:27:16;;;;;;;;;;;6.90;88.50;;;;;;5076629;28;20401;-88
2022/04/12 05:29:42;;;;;;;;;;;7.10;87.40;;;;;;5089549;28;19976;-88
2022/04/12 05:32:09;;;;;;;;;;;7.40;86.30;;;;;;5095867;28;19920;-88
2022/04/12 05:34:41;;;;;;;;;;;7.70;85.10;;;;;;5088202;28;19912;-88
2022/04/12 05:37:07;;;;;;;;;;;7.90;84.70;;;;;;5093749;28;20011;-88
2022/04/12 05:39:32;;;;;;;;;;;8.10;83.80;;;;;;5095152;28;19954;-88
2022/04/12 05:42:00;;;;;;;;;;;8.30;83.10;;;;;;5099702;28;19961;-88
2022/04/12 05:44:29;;;;;;;;;;;8.50;82.40;;;;;;5106285;28;19911;-88
2022/04/12 05:46:55;;;;;;;;;;;8.70;82.20;;;;;;5090136;28;19920;-88
2022/04/12 05:49:21;;;;;;;;;;;8.70;82.00;;;;;;5092061;28;19916;-88
2022/04/12 05:51:46;;;;;;;;;;;8.80;81.20;;;;;;5097241;28;19965;-89
2022/04/12 05:54:12;;;;;;;;;;;8.90;80.80;;;;;;5091980;28;19997;-88
2022/04/12 05:56:38;;;;;;;;;;;9.00;81.10;;;;;;5086654;28;20008;-88
2022/04/12 05:59:05;;;;;;;;;;;9.10;80.60;;;;;;5094688;28;19916;-88
2022/04/12 06:01:31;;;;;;;;;;;9.20;80.50;;;;;;5095460;28;19912;-88
2022/04/12 06:03:56;;;;;;;;;;;9.20;80.70;;;;;;5092701;28;19926;-88
2022/04/12 06:06:22;;;;;;;;;;;9.30;80.70;;;;;;5085679;28;19912;-88
2022/04/12 06:08:47;;;;;;;;;;;9.40;79.50;;;;;;5100292;28;19956;-88
2022/04/12 06:11:13;;;;;;;;;;;9.50;79.20;;;;;;5096440;28;20282;-88
2022/04/12 06:13:38;;;;;;;;;;;9.50;79.80;;;;;;5093264;28;19912;-88
2022/04/12 06:16:04;;;;;;;;;;;9.50;80.20;;;;;;5091716;28;19919;-88
2022/04/12 06:18:29;;;;;;;;;;;9.60;80.20;;;;;;5088486;28;19957;-88
2022/04/12 06:20:55;;;;;;;;;;;9.70;80.10;;;;;;5089935;28;19919;-87
2022/04/12 06:23:21;;;;;;;;;;;9.80;79.90;;;;;;5089327;28;19912;-88
2022/04/12 06:26:24;;;;;;;;;;;9.80;80.30;;;;;;5100522;27;19916;-88
2022/04/12 06:28:49;;;;;;;;;;;9.90;80.10;;;;;;5088588;28;19919;-88
2022/04/12 06:31:15;;;;;;;;;;;10.00;80.80;;;;;;5080182;28;19920;-88
2022/04/12 06:33:40;;;;;;;;;;;10.00;80.90;;;;;;5087516;28;19956;-88
2022/04/12 06:36:06;;;;;;;;;;;10.20;81.00;;;;;;5085910;28;19958;-89
2022/04/12 06:38:32;;;;;;;;;;;10.30;81.00;;;;;;5090971;28;19912;-88
2022/04/12 06:40:58;;;;;;;;;;;10.40;81.10;;;;;;5092247;28;20429;-88
2022/04/12 06:43:23;;;;;;;;;;;10.50;81.20;;;;;;5085763;28;20003;-88
2022/04/12 06:45:49;;;;;;;;;;;10.70;80.90;;;;;;5083569;28;20014;-88
2022/04/12 06:48:14;;;;;;;;;;;10.80;80.00;;;;;;5085678;28;19936;-89
2022/04/12 06:50:40;;;;;;;;;;;10.90;80.20;;;;;;5086268;28;19926;-88
2022/04/12 19:45:34;;;;;;;;;;;13.70;59.00;;;;;;5111105;27;19912;-89
2022/04/12 19:47:59;;;;;;;;;;;13.60;59.10;;;;;;5111039;28;19941;-89
2022/04/12 19:50:25;;;;;;;;;;;13.50;59.70;;;;;;5110730;28;20296;-89
2022/04/12 19:52:50;;;;;;;;;;;13.40;60.10;;;;;;5110993;28;20193;-89
2022/04/12 19:55:18;;;;;;;;;;;13.30;60.40;;;;;;5110943;28;19973;-89
2022/04/12 19:57:44;;;;;;;;;;;13.10;60.60;;;;;;5111149;28;20421;-89
2022/04/12 20:00:12;;;;;;;;;;;13.00;61.10;;;;;;5110892;28;19912;-89
2022/04/12 20:02:38;;;;;;;;;;;13.10;61.60;;;;;;5110791;28;19915;-90
2022/04/12 20:05:04;;;;;;;;;;;13.00;61.80;;;;;;5110732;28;19915;-89
2022/04/12 20:07:29;;;;;;;;;;;13.10;62.00;;;;;;5110712;28;20274;-89
2022/04/12 20:09:55;;;;;;;;;;;13.00;62.80;;;;;;5097243;28;19915;-89
2022/04/12 20:12:21;;;;;;;;;;;12.90;63.20;;;;;;5090048;28;20293;-90
2022/04/12 20:14:51;;;;;;;;;;;12.90;63.80;;;;;;5089993;28;19912;-89
2022/04/12 20:17:20;;;;;;;;;;;12.80;64.60;;;;;;5090129;28;20396;-89
2022/04/12 20:19:46;;;;;;;;;;;12.80;65.50;;;;;;5090075;28;19908;-89
2022/04/12 20:22:13;;;;;;;;;;;12.80;65.90;;;;;;5090057;28;19977;-89
2022/04/12 20:24:40;;;;;;;;;;;12.90;66.10;;;;;;5089953;28;19958;-90
2022/04/12 20:27:08;;;;;;;;;;;12.90;64.90;;;;;;5089956;28;19909;-90
2022/04/12 20:29:35;;;;;;;;;;;12.90;64.00;;;;;;5089926;28;19919;-90
2022/04/12 20:32:01;;;;;;;;;;;12.90;63.50;;;;;;5088509;28;19915;-90
2022/04/12 20:34:26;;;;;;;;;;;12.80;63.50;;;;;;5089891;28;19991;-90
2022/04/12 20:36:52;;;;;;;;;;;12.70;64.30;;;;;;5089802;28;19913;-89
2022/04/12 20:39:17;;;;;;;;;;;12.70;64.30;;;;;;5089757;28;19909;-89
2022/04/12 20:41:43;;;;;;;;;;;12.70;64.20;;;;;;5089470;28;19969;-89
2022/04/12 20:44:09;;;;;;;;;;;12.60;64.50;;;;;;5089062;28;19921;-89
2022/04/12 20:46:34;;;;;;;;;;;12.50;64.90;;;;;;5089822;28;19912;-89
2022/04/12 20:49:00;;;;;;;;;;;12.50;65.00;;;;;;5089659;28;20374;-89
2022/04/12 20:51:25;;;;;;;;;;;12.50;65.40;;;;;;5089587;28;19909;-88
2022/04/12 20:53:51;;;;;;;;;;;12.40;65.60;;;;;;5089479;28;20046;-90
2022/04/12 20:56:16;;;;;;;;;;;12.40;66.00;;;;;;5078050;28;19916;-89
2022/04/12 20:58:42;;;;;;;;;;;12.40;66.50;;;;;;5074593;28;19915;-90
2022/04/12 21:01:07;;;;;;;;;;;12.40;66.60;;;;;;5075911;28;19944;-89
2022/04/12 21:03:33;;;;;;;;;;;12.30;67.30;;;;;;5075732;28;19913;-89
2022/04/12 21:05:58;;;;;;;;;;;12.30;67.20;;;;;;5076033;28;20251;-89
2022/04/12 21:08:24;;;;;;;;;;;12.20;67.50;;;;;;5075727;28;19909;-90
2022/04/12 21:10:50;;;;;;;;;;;12.10;67.80;;;;;;5075584;28;19908;-89
2022/04/12 21:13:16;;;;;;;;;;;12.00;68.20;;;;;;5075517;28;19908;-90
2022/04/12 21:15:42;;;;;;;;;;;12.00;68.90;;;;;;5075672;28;19954;-90
2022/04/12 21:18:07;;;;;;;;;;;11.90;69.50;;;;;;5075607;28;19912;-89
2022/04/12 21:20:33;;;;;;;;;;;11.90;69.80;;;;;;5075606;28;19914;-89
2022/04/12 21:22:59;;;;;;;;;;;11.80;69.90;;;;;;5075532;28;19913;-89
2022/04/12 21:25:24;;;;;;;;;;;11.80;70.10;;;;;;5075423;28;19917;-90
2022/04/12 21:27:50;;;;;;;;;;;11.70;70.40;;;;;;5075691;28;20366;-89
2022/04/12 21:30:15;;;;;;;;;;;11.70;71.00;;;;;;5075478;28;20327;-90
2022/04/12 21:32:41;;;;;;;;;;;11.70;71.20;;;;;;5075264;28;20340;-89
2022/04/12 21:35:07;;;;;;;;;;;11.60;71.20;;;;;;5074026;28;20374;-89
2022/04/12 21:37:33;;;;;;;;;;;11.60;71.70;;;;;;5075310;28;19909;-90
2022/04/12 21:40:02;;;;;;;;;;;11.60;72.50;;;;;;5075491;28;19952;-90
2022/04/12 21:42:29;;;;;;;;;;;11.60;73.10;;;;;;5074936;28;19999;-89
2022/04/12 21:44:55;;;;;;;;;;;11.70;72.90;;;;;;5074955;28;19924;-90
2022/04/12 21:47:21;;;;;;;;;;;11.70;73.00;;;;;;5075076;28;20263;-89
2022/04/12 21:49:46;;;;;;;;;;;11.70;72.50;;;;;;5075015;28;19954;-89
2022/04/12 21:52:12;;;;;;;;;;;11.70;72.80;;;;;;5075002;28;19947;-90
2022/04/12 21:54:37;;;;;;;;;;;11.70;72.50;;;;;;5074910;28;19912;-89
2022/04/12 21:57:03;;;;;;;;;;;11.70;72.50;;;;;;5074840;28;19935;-90
2022/04/12 21:59:32;;;;;;;;;;;11.60;72.50;;;;;;5075190;28;19934;-90
2022/04/12 22:02:02;;;;;;;;;;;11.40;72.70;;;;;;5074634;28;19909;-89
2022/04/12 22:04:28;;;;;;;;;;;11.20;73.00;;;;;;5074680;28;20015;-89
2022/04/12 22:06:53;;;;;;;;;;;10.90;73.40;;;;;;5073885;28;20355;-90
2022/04/12 22:09:19;;;;;;;;;;;10.60;74.80;;;;;;5074487;28;19930;-89
2022/04/12 22:11:44;;;;;;;;;;;10.50;75.90;;;;;;5074508;28;19909;-89
2022/04/12 22:14:12;;;;;;;;;;;10.40;76.30;;;;;;5074506;28;19908;-89
2022/04/12 22:16:38;;;;;;;;;;;10.50;76.60;;;;;;5074514;28;20385;-89
2022/04/12 22:19:04;;;;;;;;;;;10.50;76.60;;;;;;5074481;28;19916;-88
2022/04/12 22:21:29;;;;;;;;;;;10.60;77.20;;;;;;5074354;28;20019;-90
2022/04/12 22:23:55;;;;;;;;;;;10.60;77.00;;;;;;5074210;28;20277;-89
2022/04/12 22:26:21;;;;;;;;;;;10.50;76.60;;;;;;5073647;28;20259;-89
2022/04/12 22:28:46;;;;;;;;;;;10.50;76.90;;;;;;5074230;28;19909;-89
2022/04/12 22:31:12;;;;;;;;;;;10.50;76.90;;;;;;5074177;28;20420;-89
2022/04/12 22:33:38;;;;;;;;;;;10.30;77.60;;;;;;5074097;28;19909;-89
2022/04/12 22:36:09;;;;;;;;;;;10.10;78.20;;;;;;5074154;28;19978;-89
2022/04/12 22:38:34;;;;;;;;;;;10.20;78.60;;;;;;5074080;28;20397;-89
2022/04/12 22:41:00;;;;;;;;;;;10.20;78.60;;;;;;5074026;28;20158;-89
2022/04/12 22:43:25;;;;;;;;;;;10.30;78.60;;;;;;5073710;28;19928;-89
2022/04/12 22:45:51;;;;;;;;;;;10.40;78.20;;;;;;5073934;28;19912;-89
2022/04/12 22:48:16;;;;;;;;;;;10.50;77.80;;;;;;5073873;28;19915;-89
2022/04/12 22:50:42;;;;;;;;;;;10.60;77.70;;;;;;5073795;28;19909;-89
2022/04/12 22:53:08;;;;;;;;;;;10.60;77.20;;;;;;5073748;28;19913;-89
2022/04/12 22:55:34;;;;;;;;;;;10.60;77.10;;;;;;5073557;28;19959;-89
2022/04/12 22:58:00;;;;;;;;;;;10.60;77.50;;;;;;5073663;28;19915;-89
2022/04/12 23:00:26;;;;;;;;;;;10.60;76.90;;;;;;5073617;28;19912;-88
2022/04/12 23:02:52;;;;;;;;;;;10.70;77.00;;;;;;5073857;28;19908;-90
2022/04/12 23:05:18;;;;;;;;;;;10.60;76.20;;;;;;5073768;28;19935;-89
2022/04/12 23:07:43;;;;;;;;;;;10.40;77.00;;;;;;5073572;28;20287;-89
2022/04/12 23:10:09;;;;;;;;;;;10.40;78.00;;;;;;5073712;28;19916;-88
2022/04/12 23:12:35;;;;;;;;;;;10.40;78.20;;;;;;5073548;28;19909;-89
2022/04/12 23:15:01;;;;;;;;;;;10.40;78.30;;;;;;5073482;28;19954;-89
2022/04/12 23:17:26;;;;;;;;;;;10.40;78.40;;;;;;5073405;28;19909;-90
2022/04/12 23:19:52;;;;;;;;;;;10.50;78.30;;;;;;5073205;28;19912;-89
2022/04/12 23:22:18;;;;;;;;;;;10.40;78.60;;;;;;5073635;28;19909;-89
2022/04/12 23:24:43;;;;;;;;;;;10.40;78.40;;;;;;5073301;28;19950;-90
2022/04/12 23:27:09;;;;;;;;;;;10.60;78.20;;;;;;5072901;28;19912;-90
2022/04/12 23:29:34;;;;;;;;;;;10.60;77.60;;;;;;5073206;28;20003;-90
2022/04/12 23:32:00;;;;;;;;;;;10.60;77.30;;;;;;5073212;28;19963;-89
2022/04/12 23:34:25;;;;;;;;;;;10.50;77.30;;;;;;5073184;28;19959;-90
2022/04/12 23:36:53;;;;;;;;;;;10.60;77.90;;;;;;5073195;28;20362;-90
2022/04/12 23:39:20;;;;;;;;;;;10.60;77.60;;;;;;5073191;28;19916;-89
2022/04/12 23:41:45;;;;;;;;;;;10.50;77.00;;;;;;5073091;28;19978;-89
2022/04/12 23:44:11;;;;;;;;;;;10.40;76.70;;;;;;5073131;28;20370;-89
2022/04/12 23:46:37;;;;;;;;;;;10.40;76.80;;;;;;5073065;28;20011;-90
2022/04/12 23:49:03;;;;;;;;;;;10.30;77.10;;;;;;5073014;28;19908;-90
2022/04/12 23:51:29;;;;;;;;;;;10.30;77.60;;;;;;5073025;28;19915;-90
2022/04/12 23:53:54;;;;;;;;;;;10.30;78.50;;;;;;5073057;28;20078;-89
2022/04/12 23:56:20;;;;;;;;;;;10.30;78.60;;;;;;5072758;28;19964;-90
2022/04/12 23:58:45;;;;;;;;;;;10.40;78.70;;;;;;5072762;28;20374;-89
